Terminal Aerodrome Forecast
Issued by NWS Shreveport, LA

Current Version | Previous Version | Text Only | Print | Product List | Glossary On
Versions: 1 2 3 4 5 6 7 8 9 10 11 12 13 14
000
FTUS44 KSHV 282340
TAFLFK
TAF
KLFK 282340Z 2900/2924 21006KT P6SM SKC
     FM290900 14003KT 2SM BR SCT015 BKN250
      TEMPO 2910/2914 1/4SM FG OVC010
     FM291500 18009KT P6SM OVC025
     FM291800 19014G20KT P6SM SCT030=

USA.gov is the U.S. government's official web portal to all federal, state and local government web resources and services.